createdAt,value
2023-03-25T00:02:23.468Z,14.93
2023-03-25T00:04:53.273Z,14.91
2023-03-25T00:07:22.482Z,14.90
2023-03-25T00:09:52.933Z,14.90
2023-03-25T00:12:22.221Z,14.91
2023-03-25T00:14:58.271Z,14.90
2023-03-25T00:17:29.934Z,14.89
2023-03-25T00:20:00.506Z,14.89
2023-03-25T00:22:30.657Z,14.89
2023-03-25T00:24:59.112Z,14.90
2023-03-25T00:27:28.183Z,14.91
2023-03-25T00:29:57.913Z,14.91
2023-03-25T00:32:28.829Z,14.92
2023-03-25T00:34:57.454Z,14.93
2023-03-25T00:37:26.853Z,14.93
2023-03-25T00:39:56.096Z,14.90
2023-03-25T00:42:26.852Z,14.88
2023-03-25T00:44:55.922Z,14.86
2023-03-25T00:47:24.667Z,14.86
2023-03-25T00:49:53.301Z,14.85
2023-03-25T00:52:22.803Z,14.88
2023-03-25T00:54:52.930Z,14.89
2023-03-25T00:57:23.082Z,14.93
2023-03-25T00:59:53.522Z,14.94
2023-03-25T01:02:24.135Z,14.94
2023-03-25T01:04:53.638Z,14.95
2023-03-25T01:07:24.620Z,14.96
2023-03-25T01:09:54.392Z,14.95
2023-03-25T01:12:23.527Z,14.95
2023-03-25T01:14:53.085Z,14.93
2023-03-25T01:17:21.975Z,14.90
2023-03-25T01:19:50.580Z,14.91
2023-03-25T01:22:20.700Z,14.89
2023-03-25T01:24:49.914Z,14.87
2023-03-25T01:27:19.625Z,14.86
2023-03-25T01:29:48.435Z,14.83
2023-03-25T01:32:17.166Z,14.81
2023-03-25T01:34:46.665Z,14.79
2023-03-25T01:37:15.792Z,14.77
2023-03-25T01:39:45.553Z,14.75
2023-03-25T01:42:15.195Z,14.74
2023-03-25T01:44:52.403Z,14.72
2023-03-25T01:47:22.662Z,14.70
2023-03-25T01:49:53.800Z,14.69
2023-03-25T01:52:24.929Z,14.69
2023-03-25T01:54:54.119Z,14.68
2023-03-25T01:57:23.743Z,14.67
2023-03-25T01:59:53.621Z,14.66
2023-03-25T02:02:26.258Z,14.65
2023-03-25T02:05:01.112Z,14.63
2023-03-25T02:07:33.103Z,14.62
2023-03-25T02:10:07.572Z,14.60
2023-03-25T02:12:36.324Z,14.57
2023-03-25T02:15:08.084Z,14.56
2023-03-25T02:17:59.090Z,14.52
2023-03-25T02:21:19.482Z,14.49
2023-03-25T02:23:59.032Z,14.46
2023-03-25T02:26:59.680Z,14.42
2023-03-25T02:29:59.041Z,14.40
2023-03-25T02:33:05.505Z,14.39
2023-03-25T02:36:09.528Z,14.36
2023-03-25T02:39:12.354Z,14.35
2023-03-25T02:42:00.161Z,14.34
2023-03-25T02:44:46.984Z,14.33
2023-03-25T02:47:18.808Z,14.30
2023-03-25T02:49:53.709Z,14.28
2023-03-25T02:52:28.989Z,14.26
2023-03-25T02:55:03.045Z,14.24
2023-03-25T02:57:34.672Z,14.21
2023-03-25T03:00:15.799Z,14.19
2023-03-25T03:02:55.339Z,14.19
2023-03-25T03:05:29.941Z,14.17
2023-03-25T03:08:33.571Z,14.16
2023-03-25T03:11:32.611Z,14.16
2023-03-25T03:14:46.646Z,14.15
2023-03-25T03:17:31.439Z,14.12
2023-03-25T03:20:37.099Z,14.10
2023-03-25T03:23:27.904Z,14.10
2023-03-25T03:26:21.669Z,14.08
2023-03-25T03:29:03.000Z,14.07
2023-03-25T03:32:05.934Z,14.03
2023-03-25T03:34:27.307Z,14.00
2023-03-25T03:36:56.270Z,13.95
2023-03-25T03:39:36.549Z,13.91
2023-03-25T03:42:10.416Z,13.88
2023-03-25T03:44:40.470Z,13.83
2023-03-25T03:47:12.998Z,13.79
2023-03-25T03:49:47.363Z,13.77
2023-03-25T03:52:25.553Z,13.74
2023-03-25T03:55:20.838Z,13.72
2023-03-25T03:57:57.708Z,13.72
2023-03-25T04:00:34.318Z,13.70
2023-03-25T04:03:17.177Z,13.69
2023-03-25T04:05:52.238Z,13.67
2023-03-25T04:08:28.392Z,13.63
2023-03-25T04:11:04.067Z,13.61
2023-03-25T04:13:36.341Z,13.60
2023-03-25T04:16:06.169Z,13.60
2023-03-25T04:18:36.203Z,13.59
2023-03-25T04:21:06.572Z,13.58
2023-03-25T04:23:37.425Z,13.56
2023-03-25T04:26:07.272Z,13.56
2023-03-25T04:28:37.158Z,13.56
2023-03-25T04:31:14.601Z,13.56
2023-03-25T04:33:48.228Z,13.55
2023-03-25T04:36:17.042Z,13.55
2023-03-25T04:38:45.753Z,13.54
2023-03-25T04:41:15.427Z,13.55
2023-03-25T04:43:44.955Z,13.54
2023-03-25T04:46:16.218Z,13.54
2023-03-25T04:48:47.259Z,13.52
2023-03-25T04:51:16.967Z,13.52
2023-03-25T04:53:47.337Z,13.50
2023-03-25T04:56:19.399Z,13.48
2023-03-25T04:58:48.164Z,13.48
2023-03-25T05:01:30.555Z,13.48
2023-03-25T05:04:06.693Z,13.48
2023-03-25T05:06:41.764Z,13.49
2023-03-25T05:09:15.327Z,13.50
2023-03-25T05:11:44.197Z,13.54
2023-03-25T05:14:16.626Z,13.54
2023-03-25T05:16:46.002Z,13.56
2023-03-25T05:19:15.413Z,13.59
2023-03-25T05:21:43.990Z,13.59
2023-03-25T05:24:13.326Z,13.60
2023-03-25T05:26:42.307Z,13.62
2023-03-25T05:29:14.510Z,13.63
2023-03-25T05:31:45.349Z,13.63
2023-03-25T05:34:17.325Z,13.65
2023-03-25T05:36:47.672Z,13.66
2023-03-25T05:39:17.387Z,13.66
2023-03-25T05:41:46.309Z,13.68
2023-03-25T05:44:17.709Z,13.69
2023-03-25T05:46:48.639Z,13.69
2023-03-25T05:49:17.530Z,13.70
2023-03-25T05:51:49.531Z,13.69
2023-03-25T05:54:19.812Z,13.71
2023-03-25T05:56:48.773Z,13.71
2023-03-25T05:59:17.754Z,13.71
2023-03-25T06:01:46.539Z,13.72
2023-03-25T06:04:16.820Z,13.73
2023-03-25T06:06:45.726Z,13.73
2023-03-25T06:09:14.510Z,13.74
2023-03-25T06:11:43.704Z,13.77
2023-03-25T06:14:13.079Z,13.79
2023-03-25T06:16:44.071Z,13.79
2023-03-25T06:19:16.573Z,13.81
2023-03-25T06:21:48.817Z,13.80
2023-03-25T06:24:21.848Z,13.80
2023-03-25T06:26:51.453Z,13.78
2023-03-25T06:29:20.661Z,13.75
2023-03-25T06:31:49.344Z,13.74
2023-03-25T06:34:17.914Z,13.72
2023-03-25T06:36:49.890Z,13.72
2023-03-25T06:39:19.121Z,13.71
2023-03-25T06:41:49.425Z,13.70
2023-03-25T06:44:24.570Z,13.69
2023-03-25T06:47:06.507Z,13.68
2023-03-25T06:49:43.172Z,13.68
2023-03-25T06:52:12.869Z,13.67
2023-03-25T06:54:44.284Z,13.68
2023-03-25T06:57:14.427Z,13.69
2023-03-25T06:59:47.225Z,13.70
2023-03-25T07:02:15.892Z,13.70
2023-03-25T07:04:46.233Z,13.72
2023-03-25T07:07:15.356Z,13.75
2023-03-25T07:09:44.671Z,13.78
2023-03-25T07:12:13.369Z,13.82
2023-03-25T07:14:44.309Z,13.84
2023-03-25T07:17:13.570Z,13.88
2023-03-25T07:19:43.757Z,13.93
2023-03-25T07:22:13.873Z,13.98
2023-03-25T07:24:43.509Z,14.05
2023-03-25T07:27:12.778Z,14.13
2023-03-25T07:29:42.211Z,14.19
2023-03-25T07:32:11.273Z,14.29
2023-03-25T07:34:42.703Z,14.40
2023-03-25T07:37:11.909Z,14.50
2023-03-25T07:39:40.934Z,14.60
2023-03-25T07:42:10.569Z,14.68
2023-03-25T07:44:58.056Z,14.74
2023-03-25T07:47:27.245Z,14.82
2023-03-25T07:49:56.044Z,14.87
2023-03-25T07:52:24.698Z,14.93
2023-03-25T07:54:53.363Z,14.98
2023-03-25T07:57:23.282Z,15.03
2023-03-25T07:59:53.689Z,15.07
2023-03-25T08:02:22.677Z,15.10
2023-03-25T08:04:53.400Z,15.11
2023-03-25T08:07:23.828Z,15.10
2023-03-25T08:09:53.347Z,15.13
2023-03-25T08:12:23.344Z,15.14
2023-03-25T08:14:53.554Z,15.18
2023-03-25T08:17:23.276Z,15.20
2023-03-25T08:19:51.964Z,15.22
2023-03-25T08:22:20.821Z,15.30
2023-03-25T08:24:51.394Z,15.37
2023-03-25T08:27:20.922Z,15.43
2023-03-25T08:29:52.649Z,15.49
2023-03-25T08:32:21.801Z,15.56
2023-03-25T08:34:51.038Z,15.64
2023-03-25T08:37:22.102Z,15.69
2023-03-25T08:39:51.178Z,15.72
2023-03-25T08:42:20.931Z,15.73
2023-03-25T08:44:50.289Z,15.72
2023-03-25T08:47:21.931Z,15.74
2023-03-25T08:49:53.052Z,15.78
2023-03-25T08:52:21.991Z,15.81
2023-03-25T08:54:51.911Z,15.84
2023-03-25T08:57:21.674Z,15.86
2023-03-25T08:59:51.521Z,15.89
2023-03-25T09:02:20.318Z,15.90
2023-03-25T09:04:50.897Z,15.91
2023-03-25T09:07:22.202Z,15.94
2023-03-25T09:09:50.676Z,15.92
2023-03-25T09:12:19.834Z,15.89
2023-03-25T09:14:49.609Z,15.87
2023-03-25T09:17:18.102Z,15.84
2023-03-25T09:19:47.750Z,15.82
2023-03-25T09:22:16.271Z,15.80
2023-03-25T09:24:46.691Z,15.84
2023-03-25T09:27:15.753Z,15.85
2023-03-25T09:29:44.376Z,15.86
2023-03-25T09:32:14.941Z,15.88
2023-03-25T09:34:43.636Z,15.90
2023-03-25T09:37:12.495Z,15.94
2023-03-25T09:39:42.064Z,15.99
2023-03-25T09:42:28.009Z,16.05
2023-03-25T09:45:19.066Z,16.07
2023-03-25T09:48:23.374Z,16.08
2023-03-25T09:50:52.043Z,16.08
2023-03-25T09:53:29.208Z,16.07
2023-03-25T09:55:58.147Z,16.06
2023-03-25T09:58:47.011Z,16.03
2023-03-25T10:01:36.281Z,16.01
2023-03-25T10:04:25.614Z,16.00
2023-03-25T10:07:33.214Z,15.98
2023-03-25T10:10:16.842Z,15.96
2023-03-25T10:13:15.212Z,15.94
2023-03-25T10:16:15.138Z,15.90
2023-03-25T10:19:26.658Z,15.90
2023-03-25T10:22:07.004Z,15.90
2023-03-25T10:24:49.311Z,15.90
2023-03-25T10:27:41.262Z,15.88
2023-03-25T10:30:30.650Z,15.89
2023-03-25T10:33:04.036Z,15.89
2023-03-25T10:35:40.535Z,15.92
2023-03-25T10:38:24.529Z,15.94
2023-03-25T10:41:27.634Z,15.95
2023-03-25T10:43:56.953Z,15.96
2023-03-25T10:46:48.449Z,15.98
2023-03-25T10:49:21.951Z,16.01
2023-03-25T10:51:53.112Z,16.01
2023-03-25T10:54:31.777Z,16.02
2023-03-25T10:57:07.691Z,16.04
2023-03-25T10:59:45.288Z,16.04
2023-03-25T11:02:22.777Z,16.02
2023-03-25T11:04:54.950Z,16.01
2023-03-25T11:07:35.054Z,16.03
2023-03-25T11:10:29.195Z,16.06
2023-03-25T11:12:59.695Z,16.11
2023-03-25T11:15:38.753Z,16.16
2023-03-25T11:18:31.624Z,16.24
2023-03-25T11:21:08.839Z,16.33
2023-03-25T11:23:49.590Z,16.40
2023-03-25T11:26:33.879Z,16.49
2023-03-25T11:29:17.322Z,16.55
2023-03-25T11:31:48.865Z,16.66
2023-03-25T11:34:23.946Z,16.73
2023-03-25T11:36:57.312Z,16.79
2023-03-25T11:39:39.432Z,16.86
2023-03-25T11:42:28.677Z,16.92
2023-03-25T11:44:59.207Z,16.91
2023-03-25T11:47:34.928Z,16.91
2023-03-25T11:50:05.379Z,16.91
2023-03-25T11:52:46.885Z,16.90
2023-03-25T11:55:19.923Z,16.91
2023-03-25T11:57:49.286Z,16.89
2023-03-25T12:00:40.672Z,16.90
2023-03-25T12:03:22.453Z,16.90
2023-03-25T12:06:13.808Z,16.92
2023-03-25T12:08:54.208Z,16.95
2023-03-25T12:11:29.477Z,16.96
2023-03-25T12:14:12.790Z,16.96
2023-03-25T12:17:04.479Z,16.99
2023-03-25T12:19:44.650Z,16.95
2023-03-25T12:22:40.433Z,16.97
2023-03-25T12:25:38.984Z,16.96
2023-03-25T12:28:42.387Z,16.94
2023-03-25T12:31:54.929Z,16.91
2023-03-25T12:35:14.540Z,16.88
2023-03-25T12:38:13.041Z,16.86
2023-03-25T12:40:53.621Z,16.82
2023-03-25T12:43:28.276Z,16.79
2023-03-25T12:46:25.266Z,16.74
2023-03-25T12:49:23.286Z,16.66
2023-03-25T12:52:08.849Z,16.55
2023-03-25T12:54:52.580Z,16.48
2023-03-25T12:57:54.513Z,16.44
2023-03-25T13:00:45.576Z,16.41
2023-03-25T13:03:44.336Z,16.39
2023-03-25T13:06:24.551Z,16.36
2023-03-25T13:09:32.950Z,16.32
2023-03-25T13:12:20.650Z,16.31
2023-03-25T13:15:08.591Z,16.29
2023-03-25T13:17:47.187Z,16.25
2023-03-25T13:20:17.491Z,16.24
2023-03-25T13:22:52.773Z,16.23
2023-03-25T13:25:46.706Z,16.22
2023-03-25T13:28:25.545Z,16.20
2023-03-25T13:30:55.115Z,16.20
2023-03-25T13:33:31.941Z,16.21
2023-03-25T13:36:30.059Z,16.20
2023-03-25T13:39:06.588Z,16.21
2023-03-25T13:41:46.677Z,16.22
2023-03-25T13:44:24.828Z,16.23
2023-03-25T13:47:14.323Z,16.25
2023-03-25T13:50:05.989Z,16.28
2023-03-25T13:52:39.306Z,16.32
2023-03-25T13:55:17.983Z,16.36
2023-03-25T13:58:03.612Z,16.42
2023-03-25T14:01:06.895Z,16.45
2023-03-25T14:04:05.105Z,16.46
2023-03-25T14:07:24.768Z,16.47
2023-03-25T14:10:10.873Z,16.47
2023-03-25T14:12:54.890Z,16.45
2023-03-25T14:15:40.154Z,16.46
2023-03-25T14:18:17.806Z,16.44
2023-03-25T14:20:47.841Z,16.44
2023-03-25T14:23:19.767Z,16.42
2023-03-25T14:25:57.129Z,16.39
2023-03-25T14:28:39.526Z,16.38
2023-03-25T14:31:22.196Z,16.36
2023-03-25T14:34:06.529Z,16.34
2023-03-25T14:36:51.441Z,16.34
2023-03-25T14:39:29.745Z,16.31
2023-03-25T14:42:07.316Z,16.29
2023-03-25T14:44:45.861Z,16.27
2023-03-25T14:47:29.631Z,16.26
2023-03-25T14:50:21.943Z,16.24
2023-03-25T14:53:04.835Z,16.21
2023-03-25T14:55:46.637Z,16.18
2023-03-25T14:58:24.661Z,16.17
2023-03-25T15:01:10.026Z,16.14
2023-03-25T15:03:43.152Z,16.11
2023-03-25T15:06:16.329Z,16.07
2023-03-25T15:08:56.734Z,16.02
2023-03-25T15:11:33.629Z,16.00
2023-03-25T15:14:06.565Z,15.99
2023-03-25T15:16:47.196Z,15.98
2023-03-25T15:19:20.294Z,15.96
2023-03-25T15:22:06.567Z,15.95
2023-03-25T15:24:37.119Z,15.94
2023-03-25T15:27:12.830Z,15.94
2023-03-25T15:30:11.798Z,15.93
2023-03-25T15:33:26.025Z,15.92
2023-03-25T15:36:21.801Z,15.91
2023-03-25T15:39:32.782Z,15.88
2023-03-25T15:42:24.149Z,15.87
2023-03-25T15:45:16.746Z,15.85
2023-03-25T15:48:13.937Z,15.81
2023-03-25T15:51:16.692Z,15.79
2023-03-25T15:54:00.296Z,15.75
2023-03-25T15:56:34.165Z,15.72
2023-03-25T15:59:13.832Z,15.68
2023-03-25T16:01:44.026Z,15.67
2023-03-25T16:04:23.721Z,15.63
2023-03-25T16:06:53.349Z,15.59
2023-03-25T16:09:28.719Z,15.58
2023-03-25T16:12:01.783Z,15.55
2023-03-25T16:14:32.572Z,15.52
2023-03-25T16:17:04.925Z,15.50
2023-03-25T16:19:42.383Z,15.50
2023-03-25T16:22:37.594Z,15.50
2023-03-25T16:25:10.085Z,15.50
2023-03-25T16:27:46.629Z,15.48
2023-03-25T16:30:39.462Z,15.45
2023-03-25T16:33:13.526Z,15.42
2023-03-25T16:35:50.840Z,15.40
2023-03-25T16:38:21.402Z,15.38
2023-03-25T16:40:50.469Z,15.35
2023-03-25T16:43:27.186Z,15.33
2023-03-25T16:46:01.651Z,15.30
2023-03-25T16:48:36.699Z,15.27
2023-03-25T16:51:30.023Z,15.24
2023-03-25T16:54:00.396Z,15.22
2023-03-25T16:56:31.080Z,15.19
2023-03-25T16:59:07.464Z,15.16
2023-03-25T17:01:42.130Z,15.14
2023-03-25T17:04:25.067Z,15.09
2023-03-25T17:07:00.902Z,15.06
2023-03-25T17:09:38.095Z,15.03
2023-03-25T17:12:11.246Z,15.01
2023-03-25T17:14:44.814Z,15.00
2023-03-25T17:17:46.373Z,14.97
2023-03-25T17:20:22.816Z,14.97
2023-03-25T17:23:08.083Z,14.91
2023-03-25T17:25:54.815Z,14.87
2023-03-25T17:28:34.864Z,14.85
2023-03-25T17:31:25.813Z,14.82
2023-03-25T17:34:01.900Z,14.80
2023-03-25T17:36:32.543Z,14.79
2023-03-25T17:39:03.635Z,14.78
2023-03-25T17:41:38.254Z,14.77
2023-03-25T17:44:06.721Z,14.74
2023-03-25T17:46:37.115Z,14.70
2023-03-25T17:49:16.886Z,14.65
2023-03-25T17:51:46.430Z,14.60
2023-03-25T17:54:15.973Z,14.55
2023-03-25T17:56:46.913Z,14.50
2023-03-25T17:59:20.835Z,14.47
2023-03-25T18:01:50.358Z,14.43
2023-03-25T18:04:21.091Z,14.39
2023-03-25T18:06:51.560Z,14.36
2023-03-25T18:09:25.004Z,14.33
2023-03-25T18:11:56.089Z,14.33
2023-03-25T18:14:25.703Z,14.33
2023-03-25T18:16:55.331Z,14.34
2023-03-25T18:19:30.096Z,14.33
2023-03-25T18:22:09.911Z,14.28
2023-03-25T18:24:33.739Z,14.25
2023-03-25T18:27:04.207Z,14.25
2023-03-25T18:29:37.370Z,14.21
2023-03-25T18:32:06.520Z,14.21
2023-03-25T18:34:36.277Z,14.18
2023-03-25T18:37:05.267Z,14.18
2023-03-25T18:39:34.008Z,14.17
2023-03-25T18:42:03.084Z,14.15
2023-03-25T18:44:31.706Z,14.15
2023-03-25T18:47:00.418Z,14.16
2023-03-25T18:49:29.272Z,14.15
2023-03-25T18:51:59.374Z,14.15
2023-03-25T18:54:28.356Z,14.15
2023-03-25T18:56:57.329Z,14.13
2023-03-25T18:59:27.951Z,14.07
2023-03-25T19:01:57.899Z,14.00
2023-03-25T19:04:29.199Z,13.93
2023-03-25T19:07:00.678Z,13.92
2023-03-25T19:09:31.712Z,13.91
2023-03-25T19:12:02.873Z,13.89
2023-03-25T19:14:33.396Z,13.89
2023-03-25T19:17:04.368Z,13.86
2023-03-25T19:19:32.927Z,13.86
2023-03-25T19:22:01.627Z,13.82
2023-03-25T19:24:30.848Z,13.80
2023-03-25T19:27:00.394Z,13.77
2023-03-25T19:29:30.635Z,13.72
2023-03-25T19:31:59.346Z,13.63
2023-03-25T19:34:30.148Z,13.54
2023-03-25T19:37:01.198Z,13.49
2023-03-25T19:39:31.467Z,13.46
2023-03-25T19:42:03.992Z,13.43
2023-03-25T19:44:33.325Z,13.43
2023-03-25T19:47:02.518Z,13.44
2023-03-25T19:49:39.891Z,13.46
2023-03-25T19:52:04.728Z,13.47
2023-03-25T19:54:33.999Z,13.47
2023-03-25T19:57:04.512Z,13.45
2023-03-25T19:59:36.810Z,13.45
2023-03-25T20:02:06.931Z,13.45
2023-03-25T20:04:36.414Z,13.43
2023-03-25T20:07:05.134Z,13.45
2023-03-25T20:09:35.573Z,13.43
2023-03-25T20:12:04.747Z,13.40
2023-03-25T20:14:36.709Z,13.38
2023-03-25T20:17:05.984Z,13.40
2023-03-25T20:19:36.785Z,13.39
2023-03-25T20:22:18.475Z,13.37
2023-03-25T20:24:39.771Z,13.37
2023-03-25T20:27:08.971Z,13.38
2023-03-25T20:29:38.904Z,13.39
2023-03-25T20:32:07.689Z,13.40
2023-03-25T20:34:39.211Z,13.41
2023-03-25T20:37:12.016Z,13.39
2023-03-25T20:39:46.740Z,13.37
2023-03-25T20:42:16.712Z,13.36
2023-03-25T20:44:45.806Z,13.35
2023-03-25T20:47:14.803Z,13.30
2023-03-25T20:49:43.327Z,13.29
2023-03-25T20:52:14.071Z,13.25
2023-03-25T20:54:42.824Z,13.20
2023-03-25T20:57:12.787Z,13.13
2023-03-25T20:59:43.087Z,13.08
2023-03-25T21:02:12.442Z,13.02
2023-03-25T21:04:41.750Z,13.02
2023-03-25T21:07:11.902Z,13.01
2023-03-25T21:09:41.073Z,13.01
2023-03-25T21:12:11.307Z,12.99
2023-03-25T21:14:41.705Z,12.99
2023-03-25T21:17:11.971Z,12.96
2023-03-25T21:19:40.905Z,12.96
2023-03-25T21:22:09.902Z,12.96
2023-03-25T21:24:41.181Z,12.95
2023-03-25T21:27:09.818Z,12.93
2023-03-25T21:29:38.772Z,12.92
2023-03-25T21:32:10.721Z,12.85
2023-03-25T21:34:40.358Z,12.82
2023-03-25T21:37:09.330Z,12.79
2023-03-25T21:39:38.119Z,12.74
2023-03-25T21:42:10.993Z,12.70
2023-03-25T21:44:40.454Z,12.65
2023-03-25T21:47:09.511Z,12.65
2023-03-25T21:49:38.399Z,12.57
2023-03-25T21:52:08.793Z,12.53
2023-03-25T21:54:37.546Z,12.50
2023-03-25T21:57:07.575Z,12.44
2023-03-25T21:59:36.608Z,12.42
2023-03-25T22:02:05.776Z,12.41
2023-03-25T22:04:34.726Z,12.37
2023-03-25T22:07:05.398Z,12.35
2023-03-25T22:09:35.521Z,12.32
2023-03-25T22:12:04.986Z,12.30
2023-03-25T22:14:35.935Z,12.27
2023-03-25T22:17:06.247Z,12.26
2023-03-25T22:19:35.269Z,12.23
2023-03-25T22:22:07.370Z,12.20
2023-03-25T22:24:37.289Z,12.19
2023-03-25T22:27:06.116Z,12.18
2023-03-25T22:29:36.356Z,12.18
2023-03-25T22:32:06.696Z,12.18
2023-03-25T22:34:35.224Z,12.18
2023-03-25T22:37:04.174Z,12.15
2023-03-25T22:39:33.119Z,12.13
2023-03-25T22:42:02.686Z,12.10
2023-03-25T22:44:32.223Z,12.10
2023-03-25T22:47:03.010Z,12.10
2023-03-25T22:49:33.075Z,12.07
2023-03-25T22:52:01.962Z,12.04
2023-03-25T22:54:31.456Z,12.02
2023-03-25T22:57:01.840Z,12.01
2023-03-25T22:59:31.776Z,11.99
2023-03-25T23:02:01.677Z,11.98
2023-03-25T23:04:30.824Z,11.96
2023-03-25T23:07:07.683Z,11.95
2023-03-25T23:09:41.740Z,11.92
2023-03-25T23:12:22.626Z,11.91
2023-03-25T23:14:55.443Z,11.90
2023-03-25T23:17:25.109Z,11.89
2023-03-25T23:19:53.665Z,11.89
2023-03-25T23:22:24.917Z,11.89
2023-03-25T23:24:54.401Z,11.89
2023-03-25T23:27:24.678Z,11.88
2023-03-25T23:29:53.336Z,11.89
2023-03-25T23:32:22.031Z,11.90
2023-03-25T23:34:51.303Z,11.91
2023-03-25T23:37:19.896Z,11.91
2023-03-25T23:39:48.620Z,11.93
2023-03-25T23:42:18.114Z,11.93
2023-03-25T23:44:48.420Z,11.92
2023-03-25T23:47:17.101Z,11.92
2023-03-25T23:49:47.706Z,11.94
2023-03-25T23:52:17.054Z,11.93
2023-03-25T23:54:48.340Z,11.93
2023-03-25T23:57:17.547Z,11.93
2023-03-25T23:59:46.664Z,11.90
